Time;durP1;ratioP1;P1;durP2;ratioP2;P2;SDS_P1;SDS_P2;PMS_P1;PMS_P2;Temp;Humidity;BMP_temperature;BMP_pressure;BME280_temperature;BME280_humidity;BME280_pressure;Samples;Min_cycle;Max_cycle;Signal;HPM_P1;HPM_P2
2021/06/16 00:00:08;;;;;;;2.00;0.80;;;23.50;56.60;;;;;;5054395;28;20819;-79
2021/06/16 00:02:38;;;;;;;2.20;1.10;;;23.50;56.70;;;;;;5053634;28;20535;-78
2021/06/16 00:05:09;;;;;;;1.90;1.10;;;23.40;56.50;;;;;;5019607;28;20571;-78
2021/06/16 00:07:34;;;;;;;2.60;1.03;;;23.40;56.80;;;;;;5035413;28;20201;-78
2021/06/16 00:10:00;;;;;;;2.83;1.20;;;23.40;56.80;;;;;;5035547;28;20644;-78
2021/06/16 00:12:27;;;;;;;1.40;0.93;;;23.30;56.80;;;;;;5058567;28;20267;-78
2021/06/16 00:14:53;;;;;;;1.87;1.00;;;23.30;56.90;;;;;;5053451;28;20618;-78
2021/06/16 00:17:19;;;;;;;4.07;1.20;;;23.20;57.10;;;;;;5018601;28;20947;-78
2021/06/16 00:19:45;;;;;;;2.80;1.00;;;23.20;57.20;;;;;;5053373;28;20566;-78
2021/06/16 00:22:11;;;;;;;2.50;0.90;;;23.20;57.20;;;;;;5035063;28;20572;-78
2021/06/16 00:24:37;;;;;;;2.20;1.30;;;23.20;57.30;;;;;;5053175;28;20251;-78
2021/06/16 00:27:03;;;;;;;2.40;1.20;;;23.10;57.30;;;;;;5020724;28;20622;-78
2021/06/16 00:29:29;;;;;;;2.13;0.90;;;23.10;57.40;;;;;;5043321;28;21284;-78
2021/06/16 00:31:55;;;;;;;4.03;1.10;;;23.10;57.50;;;;;;5059496;28;20606;-78
2021/06/16 00:34:21;;;;;;;4.73;1.03;;;23.00;57.60;;;;;;5063696;28;20626;-79
2021/06/16 00:36:47;;;;;;;1.90;0.97;;;23.00;57.80;;;;;;5055041;28;20709;-79
2021/06/16 00:39:13;;;;;;;1.60;1.00;;;23.00;57.70;;;;;;5054863;28;21183;-78
2021/06/16 00:41:39;;;;;;;3.23;1.63;;;22.90;57.70;;;;;;5038229;28;20582;-78
2021/06/16 00:44:05;;;;;;;1.40;0.90;;;22.90;57.90;;;;;;5072646;28;20573;-78
2021/06/16 00:46:32;;;;;;;2.53;1.10;;;22.80;58.00;;;;;;5054572;28;21169;-78
2021/06/16 00:48:58;;;;;;;1.93;1.10;;;22.80;58.10;;;;;;5077233;28;20609;-78
2021/06/16 00:51:24;;;;;;;2.27;1.00;;;22.80;58.20;;;;;;5072600;28;21004;-79
2021/06/16 00:53:49;;;;;;;1.60;1.00;;;22.80;58.30;;;;;;5072338;28;20200;-78
2021/06/16 00:56:16;;;;;;;1.60;1.10;;;22.80;58.40;;;;;;5072043;28;20192;-78
2021/06/16 00:58:43;;;;;;;2.13;0.90;;;22.70;58.50;;;;;;5072452;28;20165;-79
2021/06/16 01:01:25;;;;;;;2.13;1.20;;;22.70;58.60;;;;;;5054636;28;20567;-78
2021/06/16 01:04:07;;;;;;;2.93;1.50;;;22.70;59.00;;;;;;5054708;28;20670;-78
2021/06/16 01:06:42;;;;;;;3.20;1.37;;;22.70;59.10;;;;;;5071951;28;20716;-78
2021/06/16 01:09:24;;;;;;;3.47;1.23;;;22.60;59.10;;;;;;5072145;28;20926;-79
2021/06/16 01:12:06;;;;;;;1.80;1.03;;;22.60;59.20;;;;;;5054468;28;20594;-78
2021/06/16 01:14:35;;;;;;;2.03;1.00;;;22.60;59.20;;;;;;5072322;28;21108;-78
2021/06/16 01:17:05;;;;;;;2.13;1.20;;;22.60;59.20;;;;;;5072255;28;20622;-79
2021/06/16 01:19:51;;;;;;;2.60;1.20;;;22.60;59.50;;;;;;5055242;28;20575;-79
2021/06/16 01:22:25;;;;;;;3.00;1.57;;;22.50;59.80;;;;;;5037273;28;21182;-77
2021/06/16 01:24:54;;;;;;;3.47;1.60;;;22.60;60.00;;;;;;5074108;28;20590;-77
2021/06/16 01:27:21;;;;;;;2.27;1.23;;;22.50;59.90;;;;;;5068717;28;20624;-77
2021/06/16 01:29:48;;;;;;;5.93;1.53;;;22.50;60.10;;;;;;5034170;28;20615;-78
2021/06/16 01:32:14;;;;;;;3.30;1.30;;;22.50;60.20;;;;;;5033931;28;20580;-77
2021/06/16 01:34:40;;;;;;;1.73;1.10;;;22.50;60.30;;;;;;5051810;28;21006;-78
2021/06/16 01:37:07;;;;;;;4.20;1.23;;;22.40;60.50;;;;;;5033497;28;20611;-78
2021/06/16 01:39:36;;;;;;;1.73;1.30;;;22.40;60.70;;;;;;5051897;28;20591;-78
2021/06/16 01:42:10;;;;;;;3.10;1.40;;;22.40;61.20;;;;;;5034105;28;21094;-77
2021/06/16 01:44:36;;;;;;;3.87;2.13;;;22.30;61.50;;;;;;5051668;28;20725;-77
2021/06/16 01:47:04;;;;;;;4.90;1.30;;;22.30;61.40;;;;;;5033577;28;20607;-77
2021/06/16 01:49:30;;;;;;;1.63;1.10;;;22.20;61.60;;;;;;5033732;28;20587;-77
2021/06/16 01:51:58;;;;;;;2.23;1.10;;;22.20;61.90;;;;;;5033934;28;20567;-77
2021/06/16 01:54:26;;;;;;;3.20;1.20;;;22.20;62.10;;;;;;5034006;28;20710;-77
2021/06/16 01:56:53;;;;;;;3.10;1.40;;;22.10;62.30;;;;;;5034075;28;20690;-77
2021/06/16 01:59:21;;;;;;;4.50;1.73;;;22.10;62.50;;;;;;5052564;28;20564;-77
2021/06/16 02:01:50;;;;;;;2.33;1.30;;;22.10;62.70;;;;;;5060443;28;20628;-77
2021/06/16 02:04:17;;;;;;;2.20;1.10;;;22.00;63.00;;;;;;5044181;28;20575;-77
2021/06/16 02:06:49;;;;;;;4.40;1.37;;;22.00;63.20;;;;;;5039217;28;20595;-77
2021/06/16 02:09:32;;;;;;;1.90;1.20;;;22.00;63.50;;;;;;5027360;28;21041;-77
2021/06/16 02:11:58;;;;;;;2.23;1.20;;;21.90;63.60;;;;;;5024395;28;20586;-77
2021/06/16 02:14:27;;;;;;;2.17;1.17;;;21.90;63.90;;;;;;5056864;28;20710;-78
2021/06/16 02:17:04;;;;;;;1.77;1.00;;;21.80;64.20;;;;;;5052136;28;20200;-78
2021/06/16 02:19:32;;;;;;;2.90;1.30;;;21.90;65.00;;;;;;5051998;28;20559;-78
2021/06/16 02:22:00;;;;;;;1.90;1.33;;;21.80;64.80;;;;;;5052146;28;20564;-78
2021/06/16 02:24:27;;;;;;;5.63;1.10;;;21.80;65.10;;;;;;5051967;28;21168;-78
2021/06/16 02:26:53;;;;;;;2.27;1.53;;;21.80;65.30;;;;;;5053315;28;20595;-78
2021/06/16 02:29:20;;;;;;;3.23;1.60;;;21.70;65.40;;;;;;5068815;28;20587;-78
2021/06/16 02:31:46;;;;;;;2.30;1.50;;;21.70;65.60;;;;;;5055003;28;20668;-78
2021/06/16 02:34:12;;;;;;;3.53;1.63;;;21.70;66.00;;;;;;5028320;28;20666;-78
2021/06/16 02:36:43;;;;;;;3.83;1.80;;;21.60;66.40;;;;;;5057729;28;20692;-78
2021/06/16 02:39:15;;;;;;;1.97;1.77;;;21.60;66.90;;;;;;5068500;28;20579;-78
2021/06/16 02:41:42;;;;;;;1.83;1.33;;;21.60;67.20;;;;;;5075270;28;20558;-77
2021/06/16 02:44:09;;;;;;;3.10;1.77;;;21.60;67.30;;;;;;5057251;28;20569;-78
2021/06/16 02:46:36;;;;;;;3.70;1.93;;;21.60;67.50;;;;;;5056441;28;21173;-78
2021/06/16 02:49:05;;;;;;;3.50;1.80;;;21.60;67.80;;;;;;5074932;28;20571;-78
2021/06/16 02:51:32;;;;;;;1.80;1.50;;;21.60;68.10;;;;;;5075293;28;20582;-77
2021/06/16 02:54:00;;;;;;;3.20;1.70;;;21.60;68.40;;;;;;5074913;28;20629;-78
2021/06/16 02:56:27;;;;;;;4.90;1.80;;;21.60;68.80;;;;;;5056689;28;20610;-77
2021/06/16 02:58:54;;;;;;;2.53;1.50;;;21.60;69.90;;;;;;5057180;28;20999;-78
2021/06/16 03:01:21;;;;;;;2.17;1.50;;;21.60;69.40;;;;;;5057053;28;20580;-78
2021/06/16 03:03:50;;;;;;;3.80;2.07;;;21.60;69.60;;;;;;5074926;28;20577;-79
2021/06/16 03:06:18;;;;;;;1.80;1.50;;;21.60;69.90;;;;;;5074388;28;20602;-78
2021/06/16 03:08:47;;;;;;;2.37;1.57;;;21.60;70.30;;;;;;5040486;28;20999;-78
2021/06/16 03:11:14;;;;;;;2.23;1.93;;;21.60;70.60;;;;;;5059526;28;20654;-77
2021/06/16 03:13:42;;;;;;;3.10;1.70;;;21.60;70.80;;;;;;5080555;28;20642;-77
2021/06/16 03:16:08;;;;;;;3.50;1.90;;;21.60;71.20;;;;;;5086747;28;20598;-78
2021/06/16 03:18:36;;;;;;;3.27;1.90;;;21.60;71.70;;;;;;5075898;28;20558;-78
2021/06/16 03:21:03;;;;;;;2.23;2.03;;;21.60;72.00;;;;;;5074896;28;20165;-78
2021/06/16 03:23:29;;;;;;;2.00;1.70;;;21.60;72.20;;;;;;5082017;28;20563;-77
2021/06/16 03:25:57;;;;;;;4.83;1.90;;;21.60;72.60;;;;;;5080646;28;20638;-78
2021/06/16 03:28:28;;;;;;;2.40;2.10;;;21.60;73.10;;;;;;5050602;28;20587;-78
2021/06/16 03:30:56;;;;;;;3.00;2.30;;;21.60;73.80;;;;;;5061987;28;20571;-78
2021/06/16 03:33:22;;;;;;;2.70;1.83;;;21.70;74.40;;;;;;5039576;28;20567;-77
2021/06/16 03:35:49;;;;;;;2.73;2.30;;;21.70;75.00;;;;;;5057866;28;20964;-77
2021/06/16 03:38:16;;;;;;;3.43;2.07;;;21.70;75.90;;;;;;5111063;22;20713;-84
2021/06/16 03:40:43;;;;;;;2.73;2.13;;;21.80;75.70;;;;;;5096127;28;20574;-83
2021/06/16 03:43:11;;;;;;;2.30;1.80;;;21.80;75.90;;;;;;5079910;28;21119;-83
2021/06/16 03:45:40;;;;;;;2.73;2.30;;;21.90;76.30;;;;;;5091173;28;20582;-83
2021/06/16 03:48:08;;;;;;;2.97;2.47;;;21.90;77.10;;;;;;5096480;28;20636;-83
2021/06/16 03:50:37;;;;;;;2.63;2.40;;;21.90;76.90;;;;;;5079364;28;20565;-83
2021/06/16 03:53:07;;;;;;;5.00;2.80;;;22.00;77.70;;;;;;5085409;28;20559;-83
2021/06/16 03:55:33;;;;;;;2.90;2.60;;;22.10;77.50;;;;;;5063521;28;20641;-83
2021/06/16 03:58:00;;;;;;;2.60;2.40;;;22.10;77.50;;;;;;5057366;28;20624;-83
2021/06/16 04:00:26;;;;;;;2.30;2.03;;;22.10;77.80;;;;;;5068585;28;20567;-84
2021/06/16 04:02:52;;;;;;;2.70;2.20;;;22.20;78.20;;;;;;5076954;28;20583;-83
2021/06/16 04:05:18;;;;;;;2.87;2.60;;;22.20;78.50;;;;;;5076550;28;20165;-85
2021/06/16 04:07:50;;;;;;;3.60;2.10;;;22.20;78.50;;;;;;5072534;28;20652;-85
2021/06/16 04:10:18;;;;;;;2.33;2.07;;;22.20;78.90;;;;;;5065617;28;20584;-86
2021/06/16 04:12:48;;;;;;;5.33;2.53;;;22.20;79.00;;;;;;5070235;28;20575;-86
2021/06/16 04:15:17;;;;;;;2.97;2.47;;;22.30;79.70;;;;;;5074766;28;20619;-86
2021/06/16 04:17:43;;;;;;;3.00;2.23;;;22.30;79.60;;;;;;5071665;28;20594;-84
2021/06/16 04:20:10;;;;;;;2.77;2.57;;;22.40;79.70;;;;;;5061698;28;20585;-85
2021/06/16 04:22:36;;;;;;;3.23;2.23;;;22.40;79.90;;;;;;5070062;28;20587;-84
2021/06/16 04:25:03;;;;;;;3.23;2.03;;;22.40;80.00;;;;;;5066572;28;20986;-84
2021/06/16 04:27:33;;;;;;;2.30;2.10;;;22.50;80.40;;;;;;5055671;28;20607;-84
2021/06/16 04:29:59;;;;;;;2.90;2.17;;;22.50;80.90;;;;;;5072605;28;20590;-84
2021/06/16 04:32:30;;;;;;;3.77;2.67;;;22.50;80.90;;;;;;5075728;28;20574;-85
2021/06/16 04:34:58;;;;;;;2.80;2.60;;;22.60;81.10;;;;;;5068171;28;20676;-84
2021/06/16 04:37:24;;;;;;;4.37;2.10;;;22.60;81.30;;;;;;5071791;28;20646;-85
2021/06/16 04:39:50;;;;;;;3.80;2.53;;;22.70;81.50;;;;;;5053556;28;20177;-84
2021/06/16 04:42:16;;;;;;;2.57;2.27;;;22.70;81.80;;;;;;5054482;28;20591;-85
2021/06/16 04:44:42;;;;;;;2.63;2.23;;;22.90;82.10;;;;;;5055526;28;20578;-84
2021/06/16 04:47:09;;;;;;;3.80;3.00;;;23.00;82.20;;;;;;5051675;28;20239;-83
2021/06/16 04:49:34;;;;;;;4.00;3.10;;;23.10;82.30;;;;;;5052949;28;20739;-84
2021/06/16 04:52:00;;;;;;;2.90;2.60;;;23.20;82.40;;;;;;5055111;28;20575;-81
2021/06/16 04:54:26;;;;;;;3.87;2.33;;;23.20;82.60;;;;;;5058317;28;20205;-82
2021/06/16 04:56:52;;;;;;;4.80;2.47;;;23.30;82.40;;;;;;5046528;28;21099;-82
2021/06/16 04:59:18;;;;;;;5.30;2.43;;;23.40;82.50;;;;;;5046500;28;20983;-82
2021/06/16 05:01:44;;;;;;;2.70;2.23;;;23.50;82.60;;;;;;5032328;28;20544;-83
2021/06/16 05:04:09;;;;;;;4.70;2.00;;;23.60;82.70;;;;;;5032795;28;20571;-83
2021/06/16 05:06:35;;;;;;;3.10;2.60;;;23.70;82.60;;;;;;5031022;28;20204;-82
2021/06/16 05:09:01;;;;;;;2.93;2.60;;;23.80;82.60;;;;;;5032512;28;20248;-84
2021/06/16 05:11:28;;;;;;;3.03;2.30;;;23.90;82.70;;;;;;5033105;28;20219;-83
2021/06/16 05:13:53;;;;;;;4.23;2.20;;;24.00;82.50;;;;;;5035634;28;20616;-85
2021/06/16 05:16:19;;;;;;;3.00;2.37;;;24.10;82.40;;;;;;5034112;28;20622;-83
2021/06/16 05:18:47;;;;;;;2.70;2.50;;;24.20;82.30;;;;;;5045183;28;20215;-82
2021/06/16 05:21:13;;;;;;;3.67;2.20;;;24.20;82.20;;;;;;5051299;28;20611;-82
2021/06/16 05:23:40;;;;;;;2.90;2.60;;;24.30;82.20;;;;;;5052393;28;20560;-82
2021/06/16 05:26:05;;;;;;;3.17;2.30;;;24.40;82.80;;;;;;5050719;28;20579;-82
2021/06/16 05:28:31;;;;;;;4.10;2.60;;;24.50;81.80;;;;;;5037895;28;20619;-82
2021/06/16 05:30:57;;;;;;;9.23;2.83;;;24.60;81.40;;;;;;5034137;28;20633;-78
2021/06/16 05:33:23;;;;;;;2.67;2.40;;;24.50;81.10;;;;;;5030479;28;20253;-77
2021/06/16 05:35:48;;;;;;;3.20;2.17;;;24.50;80.90;;;;;;5031616;28;20564;-77
2021/06/16 05:38:14;;;;;;;2.57;1.90;;;24.60;81.00;;;;;;5030617;28;20205;-77
2021/06/16 05:40:42;;;;;;;3.27;2.97;;;24.50;80.70;;;;;;5030946;28;20371;-78
2021/06/16 05:43:07;;;;;;;4.63;2.10;;;24.50;80.90;;;;;;5030570;28;20170;-78
2021/06/16 05:45:33;;;;;;;2.60;2.30;;;24.50;81.00;;;;;;5039888;28;20575;-77
2021/06/16 05:47:59;;;;;;;2.70;2.43;;;24.60;81.50;;;;;;5014435;28;20619;-78
2021/06/16 05:50:25;;;;;;;3.90;3.60;;;24.60;81.30;;;;;;5034172;28;20177;-78
2021/06/16 05:52:50;;;;;;;4.63;2.70;;;24.70;81.40;;;;;;5031940;28;20177;-80
2021/06/16 05:55:16;;;;;;;7.50;2.70;;;24.80;81.60;;;;;;5032040;28;20978;-80
2021/06/16 05:57:42;;;;;;;9.60;2.10;;;24.90;81.50;;;;;;5031404;28;20185;-80
2021/06/16 06:00:10;;;;;;;4.07;2.30;;;25.10;81.60;;;;;;5014081;28;20592;-80
2021/06/16 06:02:36;;;;;;;5.03;3.10;;;25.20;81.40;;;;;;5030499;28;20567;-80
2021/06/16 06:05:03;;;;;;;3.00;2.40;;;25.50;81.50;;;;;;5030367;28;20994;-80
2021/06/16 06:07:29;;;;;;;3.43;2.00;;;25.80;81.40;;;;;;5031022;28;20635;-81
2021/06/16 06:09:55;;;;;;;3.53;2.50;;;26.30;82.30;;;;;;5029810;28;20942;-81
2021/06/16 06:12:21;;;;;;;4.47;2.47;;;26.90;81.90;;;;;;5031061;28;20169;-81
2021/06/16 06:14:46;;;;;;;3.87;2.57;;;27.50;81.10;;;;;;5031663;28;20204;-80
2021/06/16 06:17:12;;;;;;;2.73;2.07;;;27.90;79.10;;;;;;5029849;28;20190;-79
2021/06/16 06:19:38;;;;;;;2.70;2.30;;;28.30;78.20;;;;;;5030199;28;20216;-80
2021/06/16 06:22:04;;;;;;;5.10;2.17;;;28.80;77.50;;;;;;5030425;28;20173;-80
2021/06/16 06:24:30;;;;;;;3.47;1.97;;;29.00;74.30;;;;;;5030343;28;20569;-79
2021/06/16 06:26:55;;;;;;;2.03;1.73;;;29.00;72.50;;;;;;5002721;28;20250;-80
2021/06/16 06:29:23;;;;;;;3.03;2.40;;;29.10;72.00;;;;;;5033225;28;20264;-80
2021/06/16 06:31:49;;;;;;;4.67;2.10;;;29.10;70.90;;;;;;5033377;28;20176;-81
2021/06/16 06:34:15;;;;;;;2.87;1.63;;;29.20;71.20;;;;;;5049992;28;20964;-80
2021/06/16 06:36:40;;;;;;;1.90;1.53;;;29.30;70.70;;;;;;5033146;28;20212;-80
2021/06/16 06:39:06;;;;;;;3.40;2.00;;;29.50;70.80;;;;;;5033381;28;20169;-80
2021/06/16 06:41:32;;;;;;;3.40;2.70;;;29.80;70.00;;;;;;5050250;28;20529;-80
2021/06/16 06:43:58;;;;;;;2.50;2.10;;;30.00;69.90;;;;;;5049820;28;20545;-79
2021/06/16 06:46:23;;;;;;;2.33;2.13;;;30.30;68.90;;;;;;5049354;28;20165;-80
2021/06/16 06:48:49;;;;;;;2.70;2.07;;;30.60;67.70;;;;;;5045949;28;20176;-81
2021/06/16 06:51:15;;;;;;;2.30;2.10;;;30.90;67.90;;;;;;5013532;28;20181;-80
2021/06/16 06:53:41;;;;;;;2.60;1.87;;;31.30;66.40;;;;;;4999730;28;20280;-81
2021/06/16 06:56:07;;;;;;;3.33;2.03;;;31.70;66.70;;;;;;5013039;28;21235;-82
2021/06/16 06:58:33;;;;;;;3.93;2.03;;;32.20;65.80;;;;;;5013137;28;20275;-82
2021/06/16 07:00:59;;;;;;;2.40;2.00;;;32.80;65.10;;;;;;5013573;28;20175;-83
2021/06/16 07:03:26;;;;;;;3.43;2.30;;;33.20;62.40;;;;;;5031889;28;20618;-82
2021/06/16 07:05:52;;;;;;;3.03;1.80;;;33.60;60.70;;;;;;5012882;28;20182;-83
2021/06/16 07:08:18;;;;;;;1.80;1.57;;;33.90;60.60;;;;;;5024509;28;20620;-83
2021/06/16 07:10:43;;;;;;;4.40;1.50;;;34.40;59.60;;;;;;5049563;28;20669;-83
2021/06/16 07:13:09;;;;;;;4.17;2.40;;;34.70;59.40;;;;;;5033041;28;20176;-83
2021/06/16 07:15:35;;;;;;;3.33;1.60;;;35.30;58.70;;;;;;5019116;28;20181;-83
2021/06/16 07:18:01;;;;;;;2.03;1.70;;;35.80;58.20;;;;;;5032983;28;20623;-82
2021/06/16 07:20:27;;;;;;;1.70;1.60;;;36.20;56.90;;;;;;5035044;28;20640;-83
2021/06/16 07:22:53;;;;;;;2.27;1.60;;;36.50;56.00;;;;;;5053721;28;20180;-83
2021/06/16 07:25:19;;;;;;;2.50;2.03;;;36.80;55.20;;;;;;5037814;28;20200;-82
2021/06/16 07:27:45;;;;;;;2.43;1.90;;;36.90;53.60;;;;;;5045587;28;20624;-83
2021/06/16 07:30:12;;;;;;;2.70;1.80;;;37.00;53.30;;;;;;5001827;28;20568;-82
2021/06/16 07:32:39;;;;;;;2.33;1.93;;;37.00;52.60;;;;;;5000991;28;20572;-83
2021/06/16 07:35:06;;;;;;;2.60;1.83;;;37.00;52.10;;;;;;5035158;28;20575;-82
2021/06/16 07:37:32;;;;;;;3.50;2.10;;;37.00;51.50;;;;;;5000299;28;20980;-83
2021/06/16 07:39:58;;;;;;;5.20;2.53;;;37.00;51.80;;;;;;5017874;28;20663;-84
2021/06/16 07:42:24;;;;;;;4.13;2.40;;;37.10;51.50;;;;;;5016332;28;20568;-83
2021/06/16 07:44:50;;;;;;;2.40;2.20;;;37.40;50.50;;;;;;5015927;28;20962;-84
2021/06/16 07:47:16;;;;;;;2.57;1.80;;;37.50;49.80;;;;;;5032335;28;20553;-83
2021/06/16 07:49:42;;;;;;;2.60;2.40;;;37.50;49.90;;;;;;5016002;28;20243;-83
2021/06/16 07:52:08;;;;;;;2.27;1.77;;;37.70;49.30;;;;;;5016824;28;20173;-80
2021/06/16 07:54:34;;;;;;;4.73;2.23;;;37.70;49.20;;;;;;5032518;28;20709;-80
2021/06/16 07:56:59;;;;;;;6.17;2.60;;;38.00;50.00;;;;;;5033210;28;20284;-82
2021/06/16 07:59:25;;;;;;;3.10;2.63;;;38.30;49.40;;;;;;5016250;28;20672;-81
2021/06/16 08:01:51;;;;;;;3.40;2.30;;;38.20;48.70;;;;;;5034576;28;20177;-82
2021/06/16 08:04:21;;;;;;;2.37;2.17;;;38.20;48.10;;;;;;5032301;28;20201;-84
2021/06/16 08:06:47;;;;;;;2.57;2.27;;;38.00;47.80;;;;;;5015468;28;20194;-84
2021/06/16 08:09:13;;;;;;;10.30;2.70;;;38.00;47.70;;;;;;5015758;28;20642;-81
2021/06/16 08:11:38;;;;;;;2.00;1.70;;;37.90;47.40;;;;;;5015589;28;20188;-80
2021/06/16 08:14:04;;;;;;;2.67;2.47;;;37.60;47.20;;;;;;5032337;28;20185;-80
2021/06/16 08:16:30;;;;;;;3.73;2.73;;;37.60;47.50;;;;;;5016623;28;20189;-80
2021/06/16 08:18:56;;;;;;;5.50;2.10;;;37.30;47.20;;;;;;5015756;28;20169;-80
2021/06/16 08:21:22;;;;;;;3.63;2.53;;;37.30;48.20;;;;;;5015438;28;20597;-80
2021/06/16 08:23:48;;;;;;;2.70;2.50;;;37.40;48.00;;;;;;4999051;28;20205;-81
2021/06/16 08:26:15;;;;;;;3.77;2.80;;;37.70;48.30;;;;;;5015042;28;20343;-80
2021/06/16 08:28:40;;;;;;;5.20;3.07;;;37.90;47.50;;;;;;5031549;28;20608;-80
2021/06/16 08:31:06;;;;;;;3.87;2.20;;;37.90;47.20;;;;;;5051304;28;21139;-80
2021/06/16 08:33:32;;;;;;;2.67;2.30;;;37.70;47.00;;;;;;5051896;28;20177;-79
2021/06/16 08:35:58;;;;;;;4.67;2.83;;;37.80;47.20;;;;;;5052769;28;20196;-79
2021/06/16 08:38:27;;;;;;;3.97;3.30;;;38.00;47.20;;;;;;5053465;28;20607;-81
2021/06/16 08:40:53;;;;;;;4.90;3.67;;;38.20;47.20;;;;;;5053132;28;20556;-77
2021/06/16 08:43:18;;;;;;;4.37;3.00;;;38.50;47.30;;;;;;5053021;28;20173;-77
2021/06/16 08:45:44;;;;;;;3.10;2.60;;;38.90;47.30;;;;;;5052399;28;20623;-77
2021/06/16 08:48:10;;;;;;;2.90;2.47;;;39.30;47.10;;;;;;5051495;28;20193;-81
2021/06/16 08:50:37;;;;;;;2.60;2.27;;;39.60;46.50;;;;;;5026055;28;21013;-82
2021/06/16 08:53:03;;;;;;;4.90;3.10;;;39.60;45.20;;;;;;5041144;28;20165;-81
2021/06/16 08:55:30;;;;;;;4.73;2.67;;;39.60;45.60;;;;;;5050188;28;20644;-81
2021/06/16 08:57:55;;;;;;;3.27;2.80;;;39.70;45.40;;;;;;5035558;28;20603;-81
2021/06/16 09:00:22;;;;;;;3.00;2.70;;;39.80;45.10;;;;;;5037651;28;20569;-81
2021/06/16 09:02:49;;;;;;;7.00;2.50;;;39.70;44.90;;;;;;5031567;28;20174;-80
2021/06/16 09:05:15;;;;;;;3.40;2.77;;;39.80;44.90;;;;;;5030739;28;20725;-79
2021/06/16 09:07:44;;;;;;;3.10;2.80;;;39.70;44.30;;;;;;5040926;28;21186;-79
2021/06/16 09:10:13;;;;;;;4.23;2.43;;;39.70;44.90;;;;;;5051229;28;20224;-80
2021/06/16 09:12:57;;;;;;;6.03;2.60;;;40.00;45.10;;;;;;5059388;28;20579;-78
2021/06/16 09:15:29;;;;;;;5.73;2.87;;;40.40;45.20;;;;;;5054650;28;20678;-81
2021/06/16 09:18:13;;;;;;;5.37;2.93;;;40.90;44.60;;;;;;5052975;28;20607;-81
2021/06/16 09:20:45;;;;;;;2.50;2.30;;;41.20;44.80;;;;;;5051242;28;21057;-81
2021/06/16 09:23:16;;;;;;;2.93;2.17;;;41.40;44.00;;;;;;5051143;28;20889;-80
2021/06/16 09:25:43;;;;;;;3.20;2.40;;;41.50;43.80;;;;;;5016675;28;21026;-80
2021/06/16 09:28:10;;;;;;;2.43;2.07;;;41.90;43.70;;;;;;5016745;28;20654;-81
2021/06/16 09:30:41;;;;;;;3.40;3.10;;;42.30;43.40;;;;;;5034400;28;20576;-81
2021/06/16 09:33:14;;;;;;;2.40;2.20;;;42.70;42.80;;;;;;5031611;28;21021;-82
2021/06/16 09:35:46;;;;;;;2.30;2.00;;;42.90;41.80;;;;;;5030559;28;20751;-83
2021/06/16 09:38:24;;;;;;;3.10;2.80;;;42.90;41.60;;;;;;5014765;28;21222;-81
2021/06/16 09:40:51;;;;;;;3.23;2.23;;;42.80;40.40;;;;;;5031868;28;20674;-82
2021/06/16 09:43:19;;;;;;;3.33;2.43;;;42.50;41.30;;;;;;5029865;28;20588;-80
2021/06/16 09:45:52;;;;;;;3.60;2.87;;;42.60;40.90;;;;;;5031226;28;20627;-81
2021/06/16 09:48:39;;;;;;;3.53;2.83;;;42.50;40.50;;;;;;5031677;28;20726;-82
2021/06/16 09:51:17;;;;;;;3.73;2.87;;;42.40;41.20;;;;;;5031727;28;20564;-81
2021/06/16 09:56:41;;;;;;;3.80;2.50;;;43.00;41.80;;;;;;5031240;28;20560;-80
2021/06/16 09:59:08;;;;;;;2.90;2.70;;;43.30;41.50;;;;;;5030385;28;20567;-81
2021/06/16 10:01:56;;;;;;;3.70;2.87;;;43.50;40.80;;;;;;5030224;28;20671;-81
2021/06/16 10:04:34;;;;;;;3.63;3.03;;;43.50;40.20;;;;;;5031854;28;20624;-80
2021/06/16 10:07:18;;;;;;;3.87;2.83;;;43.30;39.60;;;;;;5031408;28;20691;-81
2021/06/16 10:10:00;;;;;;;7.93;2.43;;;43.30;40.20;;;;;;5030624;28;20564;-81
2021/06/16 10:12:33;;;;;;;3.07;2.60;;;43.50;39.90;;;;;;5030167;28;20983;-80
2021/06/16 10:15:01;;;;;;;3.47;2.50;;;43.70;39.50;;;;;;5030003;28;20573;-80
2021/06/16 10:17:28;;;;;;;3.23;2.40;;;43.80;39.50;;;;;;5029448;28;20600;-80
2021/06/16 10:19:54;;;;;;;4.30;2.57;;;43.80;39.40;;;;;;5031738;28;20577;-79
2021/06/16 10:22:21;;;;;;;3.53;2.93;;;43.90;39.30;;;;;;5031051;28;20989;-80
2021/06/16 10:24:47;;;;;;;3.23;2.40;;;44.10;38.80;;;;;;5031135;28;20623;-79
2021/06/16 10:27:30;;;;;;;3.70;2.40;;;43.80;38.10;;;;;;5046856;28;20596;-79
2021/06/16 10:30:04;;;;;;;2.20;2.00;;;43.70;38.50;;;;;;5051149;28;20587;-79
2021/06/16 10:32:45;;;;;;;2.80;2.60;;;44.00;38.90;;;;;;5049906;28;20568;-79
2021/06/16 10:35:35;;;;;;;3.07;2.23;;;44.20;38.00;;;;;;5049975;28;20666;-79
2021/06/16 10:38:18;;;;;;;5.63;2.37;;;44.30;38.40;;;;;;5050708;28;20630;-79
2021/06/16 10:40:51;;;;;;;3.27;2.63;;;44.40;38.20;;;;;;5052938;28;20579;-80
2021/06/16 10:43:20;;;;;;;3.87;2.97;;;44.50;38.20;;;;;;5049659;28;20579;-80
2021/06/16 10:46:04;;;;;;;4.03;2.40;;;44.60;37.90;;;;;;5050578;28;20972;-80
2021/06/16 10:48:46;;;;;;;4.50;2.23;;;44.70;38.20;;;;;;5050863;28;20591;-80
2021/06/16 10:51:33;;;;;;;4.90;2.03;;;44.50;37.60;;;;;;5051002;28;20660;-78
2021/06/16 10:54:19;;;;;;;2.80;2.23;;;44.40;37.60;;;;;;5052112;28;20658;-81
2021/06/16 10:56:54;;;;;;;2.17;1.90;;;44.20;37.10;;;;;;5053236;28;20602;-82
2021/06/16 10:59:42;;;;;;;2.90;2.50;;;43.90;37.10;;;;;;5050449;28;20599;-80
2021/06/16 11:02:12;;;;;;;7.03;2.30;;;43.50;36.20;;;;;;5069904;28;20583;-80
2021/06/16 11:04:38;;;;;;;2.23;2.03;;;43.10;37.10;;;;;;5054292;28;20642;-79
2021/06/16 11:07:38;;;;;;;2.57;2.37;;;42.60;36.90;;;;;;5046621;28;20612;-80
2021/06/16 11:10:08;;;;;;;3.97;2.00;;;42.30;38.60;;;;;;5017201;28;20641;-80
2021/06/16 11:12:37;;;;;;;3.23;2.70;;;42.30;38.70;;;;;;5034676;28;20564;-80
2021/06/16 11:15:11;;;;;;;3.93;2.43;;;42.50;39.90;;;;;;5037782;28;20686;-80
2021/06/16 11:17:39;;;;;;;2.27;2.00;;;42.50;38.30;;;;;;5059190;28;21158;-80
2021/06/16 11:20:04;;;;;;;2.50;2.30;;;42.50;38.60;;;;;;5053788;28;20598;-80
2021/06/16 11:22:34;;;;;;;2.40;1.90;;;42.40;38.40;;;;;;5054790;28;20563;-81
2021/06/16 11:25:06;;;;;;;5.87;2.17;;;42.40;38.10;;;;;;5055332;28;20680;-82
2021/06/16 11:27:56;;;;;;;2.60;1.80;;;42.20;37.70;;;;;;5053767;28;21154;-84
2021/06/16 11:30:44;;;;;;;2.20;1.80;;;42.00;37.60;;;;;;5054341;28;20572;-83
2021/06/16 11:33:16;;;;;;;1.77;1.57;;;41.80;38.80;;;;;;5041071;28;20598;-82
2021/06/16 11:35:55;;;;;;;3.97;1.63;;;41.80;38.00;;;;;;5033693;28;20568;-82
2021/06/16 11:38:21;;;;;;;2.33;1.90;;;41.70;37.90;;;;;;5033928;28;20699;-82
2021/06/16 11:41:03;;;;;;;2.80;2.40;;;41.70;38.10;;;;;;5033037;28;21266;-82
2021/06/16 11:43:51;;;;;;;3.70;2.43;;;41.60;37.70;;;;;;5033931;28;20173;-83
2021/06/16 11:46:31;;;;;;;2.47;1.80;;;41.30;37.30;;;;;;5033971;28;21224;-81
2021/06/16 11:49:21;;;;;;;2.53;2.10;;;40.80;37.20;;;;;;5032427;28;20575;-82
2021/06/16 11:51:49;;;;;;;2.77;2.47;;;40.40;37.50;;;;;;5034176;28;20588;-82
2021/06/16 11:54:35;;;;;;;2.43;1.50;;;40.10;37.80;;;;;;5035190;28;20565;-82
2021/06/16 11:57:07;;;;;;;2.20;1.67;;;39.90;38.00;;;;;;5032557;28;20595;-82
2021/06/16 11:59:44;;;;;;;4.17;2.70;;;39.80;38.20;;;;;;5033721;28;20619;-83
2021/06/16 12:02:13;;;;;;;2.90;2.40;;;39.60;38.10;;;;;;5035527;28;20595;-81
2021/06/16 12:04:57;;;;;;;5.10;2.53;;;39.20;38.20;;;;;;5053557;28;20625;-81
2021/06/16 12:07:35;;;;;;;3.60;2.57;;;39.00;38.70;;;;;;5040327;28;21026;-81
2021/06/16 12:10:08;;;;;;;7.47;2.73;;;38.80;38.80;;;;;;5032101;28;20986;-82
2021/06/16 12:12:50;;;;;;;2.63;1.80;;;38.60;39.10;;;;;;5035003;28;20583;-81
2021/06/16 12:15:22;;;;;;;2.53;2.10;;;38.50;39.30;;;;;;5036557;28;20583;-80
2021/06/16 12:18:00;;;;;;;4.07;2.37;;;38.60;39.90;;;;;;5015404;28;20608;-81
2021/06/16 12:20:47;;;;;;;2.73;2.10;;;38.70;39.90;;;;;;5015648;28;20615;-81
2021/06/16 12:23:32;;;;;;;1.80;1.60;;;38.80;39.50;;;;;;5033674;28;20604;-82
2021/06/16 12:26:13;;;;;;;2.60;2.40;;;38.80;40.60;;;;;;5031655;28;20583;-84
2021/06/16 12:28:41;;;;;;;3.10;2.00;;;38.90;39.80;;;;;;5032528;28;20682;-83
2021/06/16 12:31:14;;;;;;;5.53;2.97;;;38.80;39.20;;;;;;5036546;28;20565;-83
2021/06/16 12:34:10;;;;;;;2.83;2.60;;;38.60;39.20;;;;;;5033026;28;20568;-84
2021/06/16 12:36:34;;;;;;;2.80;2.27;;;38.30;39.30;;;;;;5040088;28;20606;-82
2021/06/16 12:39:16;;;;;;;2.83;2.40;;;38.10;40.90;;;;;;5063859;28;20563;-81
2021/06/16 12:41:56;;;;;;;4.33;3.00;;;37.90;41.40;;;;;;5057907;28;20576;-82
2021/06/16 12:44:38;;;;;;;4.13;2.20;;;37.60;40.20;;;;;;5055086;28;20641;-81
2021/06/16 12:47:11;;;;;;;2.10;1.53;;;37.50;40.20;;;;;;5054752;28;20952;-81
2021/06/16 12:49:43;;;;;;;2.40;2.03;;;37.30;40.10;;;;;;5053566;28;20916;-81
2021/06/16 12:52:12;;;;;;;5.20;1.67;;;37.20;40.40;;;;;;5053244;28;21162;-82
2021/06/16 12:54:38;;;;;;;2.67;2.00;;;37.10;40.40;;;;;;5053362;28;20969;-81
2021/06/16 12:57:06;;;;;;;5.23;2.40;;;37.00;40.50;;;;;;5052596;28;20602;-82
2021/06/16 12:59:38;;;;;;;2.73;2.53;;;36.70;41.40;;;;;;5052706;28;20567;-82
2021/06/16 13:02:06;;;;;;;2.37;2.17;;;36.60;40.90;;;;;;5053408;28;20604;-82